createdAt,value
2022-12-17T00:02:31.166Z,-0.24
2022-12-17T00:05:16.414Z,-0.18
2022-12-17T00:08:01.951Z,-0.18
2022-12-17T00:10:48.002Z,-0.18
2022-12-17T00:13:37.274Z,-0.14
2022-12-17T00:16:23.814Z,-0.12
2022-12-17T00:19:11.155Z,-0.11
2022-12-17T00:21:56.894Z,-0.08
2022-12-17T00:24:42.483Z,-0.05
2022-12-17T00:27:28.150Z,-0.06
2022-12-17T00:30:18.969Z,-0.05
2022-12-17T00:33:04.834Z,-0.06
2022-12-17T00:35:54.562Z,-0.04
2022-12-17T00:38:42.730Z,-0.05
2022-12-17T00:41:28.426Z,-0.04
2022-12-17T00:44:14.134Z,-0.04
2022-12-17T00:47:00.840Z,-0.07
2022-12-17T00:49:48.685Z,-0.04
2022-12-17T00:52:35.788Z,-0.01
2022-12-17T00:55:21.560Z,-0.03
2022-12-17T00:58:13.660Z,-0.01
2022-12-17T01:00:59.804Z,0.00
2022-12-17T01:04:01.039Z,0.00
2022-12-17T01:06:47.001Z,0.01
2022-12-17T01:09:34.189Z,0.01
2022-12-17T01:12:19.923Z,0.05
2022-12-17T01:15:05.541Z,0.07
2022-12-17T01:17:51.184Z,0.10
2022-12-17T01:20:37.571Z,0.15
2022-12-17T01:23:25.652Z,0.17
2022-12-17T01:26:13.387Z,0.23
2022-12-17T01:28:59.726Z,0.29
2022-12-17T01:31:45.455Z,0.33
2022-12-17T01:34:31.003Z,0.36
2022-12-17T01:37:16.395Z,0.37
2022-12-17T01:40:02.106Z,0.39
2022-12-17T01:42:57.321Z,0.42
2022-12-17T01:45:43.895Z,0.42
2022-12-17T01:48:33.559Z,0.45
2022-12-17T01:51:19.139Z,0.46
2022-12-17T01:54:06.169Z,0.48
2022-12-17T01:56:52.356Z,0.48
2022-12-17T01:59:43.685Z,0.49
2022-12-17T02:02:29.426Z,0.49
2022-12-17T02:05:16.185Z,0.49
2022-12-17T02:08:08.168Z,0.50
2022-12-17T02:10:57.144Z,0.52
2022-12-17T02:13:44.350Z,0.50
2022-12-17T02:16:33.599Z,0.55
2022-12-17T02:19:21.662Z,0.56
2022-12-17T02:22:11.666Z,0.59
2022-12-17T02:24:58.418Z,0.60
2022-12-17T02:27:46.606Z,0.63
2022-12-17T02:30:32.518Z,0.64
2022-12-17T02:33:18.002Z,0.67
2022-12-17T02:36:08.390Z,0.67
2022-12-17T02:38:53.870Z,0.69
2022-12-17T02:41:46.240Z,0.70
2022-12-17T02:44:37.250Z,0.71
2022-12-17T02:47:25.602Z,0.71
2022-12-17T02:50:11.491Z,0.71
2022-12-17T02:52:58.386Z,0.72
2022-12-17T02:55:45.649Z,0.74
2022-12-17T02:58:32.538Z,0.73
2022-12-17T03:01:21.306Z,0.71
2022-12-17T03:04:07.331Z,0.72
2022-12-17T03:06:52.848Z,0.72
2022-12-17T03:09:39.672Z,0.69
2022-12-17T03:12:25.289Z,0.72
2022-12-17T03:15:10.679Z,0.71
2022-12-17T03:17:57.446Z,0.69
2022-12-17T03:20:43.031Z,0.69
2022-12-17T03:23:29.188Z,0.69
2022-12-17T03:26:16.727Z,0.66
2022-12-17T03:29:02.653Z,0.69
2022-12-17T03:32:00.444Z,0.68
2022-12-17T03:34:47.611Z,0.65
2022-12-17T03:37:32.946Z,0.65
2022-12-17T03:40:18.161Z,0.57
2022-12-17T03:43:04.125Z,0.57
2022-12-17T03:45:49.792Z,0.54
2022-12-17T03:48:35.315Z,0.51
2022-12-17T03:51:22.514Z,0.49
2022-12-17T03:54:08.038Z,0.47
2022-12-17T03:56:53.351Z,0.43
2022-12-17T03:59:39.105Z,0.41
2022-12-17T04:02:24.657Z,0.38
2022-12-17T04:05:13.810Z,0.34
2022-12-17T04:08:03.956Z,0.28
2022-12-17T04:10:49.255Z,0.26
2022-12-17T04:13:40.213Z,0.27
2022-12-17T04:16:28.981Z,0.26
2022-12-17T04:19:14.427Z,0.26
2022-12-17T04:22:00.025Z,0.23
2022-12-17T04:24:47.292Z,0.20
2022-12-17T04:27:33.070Z,0.15
2022-12-17T04:30:18.366Z,0.12
2022-12-17T04:33:03.958Z,0.10
2022-12-17T04:35:49.554Z,0.07
2022-12-17T04:38:35.326Z,0.06
2022-12-17T04:41:22.570Z,0.03
2022-12-17T04:44:08.022Z,-0.01
2022-12-17T04:46:53.530Z,-0.05
2022-12-17T04:49:39.179Z,-0.08
2022-12-17T04:52:24.530Z,-0.13
2022-12-17T04:55:10.125Z,-0.15
2022-12-17T04:57:57.205Z,-0.16
2022-12-17T05:00:42.833Z,-0.21
2022-12-17T05:03:30.102Z,-0.25
2022-12-17T05:06:16.214Z,-0.29
2022-12-17T05:09:01.750Z,-0.30
2022-12-17T05:11:47.530Z,-0.33
2022-12-17T05:14:34.610Z,-0.41
2022-12-17T05:17:20.185Z,-0.46
2022-12-17T05:20:05.726Z,-0.50
2022-12-17T05:22:54.208Z,-0.55
2022-12-17T05:25:39.444Z,-0.61
2022-12-17T05:28:24.834Z,-0.65
2022-12-17T05:31:12.716Z,-0.68
2022-12-17T05:33:58.461Z,-0.75
2022-12-17T05:36:43.912Z,-0.78
2022-12-17T05:39:29.514Z,-0.78
2022-12-17T05:42:15.008Z,-0.79
2022-12-17T05:45:00.907Z,-0.77
2022-12-17T05:47:48.243Z,-0.75
2022-12-17T05:50:33.982Z,-0.75
2022-12-17T05:53:20.209Z,-0.75
2022-12-17T05:56:07.592Z,-0.76
2022-12-17T05:59:07.554Z,-0.79
2022-12-17T06:01:52.773Z,-0.83
2022-12-17T06:04:39.998Z,-0.89
2022-12-17T06:07:25.543Z,-0.95
2022-12-17T06:10:10.947Z,-0.99
2022-12-17T06:12:56.530Z,-1.03
2022-12-17T06:15:42.585Z,-1.06
2022-12-17T06:18:28.323Z,-1.08
2022-12-17T06:21:15.458Z,-1.10
2022-12-17T06:24:01.171Z,-1.13
2022-12-17T06:26:46.443Z,-1.16
2022-12-17T06:29:32.241Z,-1.20
2022-12-17T06:32:17.829Z,-1.24
2022-12-17T06:35:03.241Z,-1.28
2022-12-17T06:37:50.386Z,-1.32
2022-12-17T06:40:36.142Z,-1.36
2022-12-17T06:43:21.617Z,-1.40
2022-12-17T06:46:07.182Z,-1.44
2022-12-17T06:48:52.798Z,-1.45
2022-12-17T06:51:38.585Z,-1.50
2022-12-17T06:54:25.855Z,-1.50
2022-12-17T06:57:16.927Z,-1.51
2022-12-17T07:00:02.041Z,-1.53
2022-12-17T07:02:48.128Z,-1.54
2022-12-17T07:05:34.555Z,-1.54
2022-12-17T07:08:20.155Z,-1.54
2022-12-17T07:11:07.365Z,-1.57
2022-12-17T07:13:53.255Z,-1.55
2022-12-17T07:16:38.734Z,-1.54
2022-12-17T07:19:27.437Z,-1.59
2022-12-17T07:22:13.121Z,-1.60
2022-12-17T07:24:58.708Z,-1.62
2022-12-17T07:27:45.960Z,-1.64
2022-12-17T07:30:31.933Z,-1.68
2022-12-17T07:33:18.665Z,-1.71
2022-12-17T07:36:04.496Z,-1.78
2022-12-17T07:38:50.019Z,-1.82
2022-12-17T07:41:35.651Z,-1.79
2022-12-17T07:44:22.972Z,-1.74
2022-12-17T07:47:08.386Z,-1.66
2022-12-17T07:49:53.958Z,-1.59
2022-12-17T07:52:39.455Z,-1.52
2022-12-17T07:55:24.961Z,-1.51
2022-12-17T07:58:16.357Z,-1.51
2022-12-17T08:01:03.592Z,-1.52
2022-12-17T08:03:49.092Z,-1.51
2022-12-17T08:06:39.888Z,-1.50
2022-12-17T08:09:26.050Z,-1.53
2022-12-17T08:12:11.573Z,-1.53
2022-12-17T08:14:57.265Z,-1.53
2022-12-17T08:17:44.268Z,-1.56
2022-12-17T08:20:29.925Z,-1.58
2022-12-17T08:23:19.406Z,-1.55
2022-12-17T08:26:04.998Z,-1.60
2022-12-17T08:28:51.249Z,-1.64
2022-12-17T08:31:37.810Z,-1.61
2022-12-17T08:34:25.054Z,-1.62
2022-12-17T08:37:10.454Z,-1.65
2022-12-17T08:39:56.015Z,-1.64
2022-12-17T08:42:41.925Z,-1.65
2022-12-17T08:45:27.848Z,-1.70
2022-12-17T08:48:20.462Z,-1.74
2022-12-17T08:51:07.531Z,-1.78
2022-12-17T08:53:53.242Z,-1.81
2022-12-17T08:56:38.664Z,-1.82
2022-12-17T08:59:23.928Z,-1.83
2022-12-17T09:02:09.370Z,-1.83
2022-12-17T09:04:55.165Z,-1.79
2022-12-17T09:07:42.261Z,-1.75
2022-12-17T09:10:28.339Z,-1.70
2022-12-17T09:13:14.142Z,-1.67
2022-12-17T09:15:59.665Z,-1.62
2022-12-17T09:18:45.179Z,-1.57
2022-12-17T09:21:30.691Z,-1.50
2022-12-17T09:24:17.394Z,-1.46
2022-12-17T09:27:03.006Z,-1.40
2022-12-17T09:29:48.548Z,-1.35
2022-12-17T09:32:34.363Z,-1.31
2022-12-17T09:35:20.103Z,-1.28
2022-12-17T09:38:09.563Z,-1.24
2022-12-17T09:40:57.667Z,-1.15
2022-12-17T09:43:48.969Z,-1.12
2022-12-17T09:46:39.169Z,-1.08
2022-12-17T09:49:31.858Z,-1.05
2022-12-17T09:52:17.129Z,-0.98
2022-12-17T09:55:03.584Z,-0.89
2022-12-17T09:57:52.527Z,-0.88
2022-12-17T10:00:38.687Z,-0.81
2022-12-17T10:03:30.596Z,-0.69
2022-12-17T10:06:20.828Z,-0.53
2022-12-17T10:09:11.761Z,-0.42
2022-12-17T10:11:57.588Z,-0.21
2022-12-17T10:14:44.731Z,-0.16
2022-12-17T10:17:33.071Z,-0.04
2022-12-17T10:20:19.639Z,0.05
2022-12-17T10:23:05.981Z,0.22
2022-12-17T10:25:52.505Z,0.50
2022-12-17T10:28:38.896Z,0.55
2022-12-17T10:31:29.061Z,0.65
2022-12-17T10:34:15.352Z,0.76
2022-12-17T10:37:04.139Z,0.89
2022-12-17T10:39:50.192Z,1.10
2022-12-17T10:42:39.841Z,1.54
2022-12-17T10:45:39.358Z,2.11
2022-12-17T10:48:36.272Z,2.58
2022-12-17T10:51:22.148Z,2.88
2022-12-17T10:54:08.528Z,3.27
2022-12-17T10:56:54.305Z,3.63
2022-12-17T10:59:50.205Z,3.93
2022-12-17T11:02:39.520Z,4.08
2022-12-17T11:05:32.230Z,4.26
2022-12-17T11:08:19.196Z,4.57
2022-12-17T11:11:05.672Z,4.89
2022-12-17T11:13:53.185Z,5.19
2022-12-17T11:16:43.392Z,5.54
2022-12-17T11:19:43.815Z,5.62
2022-12-17T11:22:42.055Z,5.76
2022-12-17T11:25:42.211Z,6.13
2022-12-17T11:28:33.711Z,6.28
2022-12-17T11:31:27.213Z,6.55
2022-12-17T11:34:19.323Z,6.80
2022-12-17T11:37:09.451Z,6.92
2022-12-17T11:40:00.573Z,7.07
2022-12-17T11:42:52.994Z,7.09
2022-12-17T11:45:44.435Z,7.34
2022-12-17T11:48:34.205Z,7.32
2022-12-17T11:51:22.467Z,7.20
2022-12-17T11:54:13.751Z,7.20
2022-12-17T11:57:04.051Z,7.09
2022-12-17T11:59:55.088Z,7.06
2022-12-17T12:02:51.888Z,6.88
2022-12-17T12:05:43.875Z,6.85
2022-12-17T12:08:33.784Z,6.97
2022-12-17T12:11:29.784Z,7.00
2022-12-17T12:14:25.099Z,7.13
2022-12-17T12:17:18.686Z,7.20
2022-12-17T12:20:10.070Z,7.20
2022-12-17T12:23:05.005Z,7.02
2022-12-17T12:25:56.424Z,7.12
2022-12-17T12:28:48.745Z,6.90
2022-12-17T12:31:43.090Z,6.65
2022-12-17T12:34:33.538Z,6.50
2022-12-17T12:37:23.487Z,6.29
2022-12-17T12:40:15.693Z,6.13
2022-12-17T12:43:09.865Z,6.15
2022-12-17T12:46:07.283Z,5.95
2022-12-17T12:49:03.445Z,5.56
2022-12-17T12:51:53.800Z,5.67
2022-12-17T12:54:42.734Z,5.56
2022-12-17T12:57:50.626Z,5.50
2022-12-17T13:00:47.102Z,5.35
2022-12-17T13:03:39.784Z,5.25
2022-12-17T13:06:09.894Z,5.24
2022-12-17T13:08:38.783Z,5.09
2022-12-17T13:11:11.787Z,5.11
2022-12-17T13:13:56.311Z,5.05
2022-12-17T13:16:30.254Z,4.97
2022-12-17T13:19:03.439Z,4.84
2022-12-17T13:21:33.193Z,4.81
2022-12-17T13:24:11.805Z,4.73
2022-12-17T13:26:46.552Z,4.72
2022-12-17T13:29:22.889Z,4.61
2022-12-17T13:32:04.336Z,4.46
2022-12-17T13:34:40.832Z,4.40
2022-12-17T13:37:13.835Z,4.32
2022-12-17T13:39:46.845Z,4.18
2022-12-17T13:42:19.660Z,4.07
2022-12-17T13:44:49.289Z,4.03
2022-12-17T13:47:21.773Z,4.06
2022-12-17T13:50:24.478Z,4.04
2022-12-17T13:52:42.417Z,3.98
2022-12-17T13:55:11.969Z,4.02
2022-12-17T13:57:40.062Z,4.07
2022-12-17T14:00:08.847Z,4.10
2022-12-17T14:02:42.578Z,4.17
2022-12-17T14:05:24.595Z,4.18
2022-12-17T14:07:54.857Z,4.25
2022-12-17T14:10:23.795Z,4.30
2022-12-17T14:12:54.428Z,4.28
2022-12-17T14:15:28.355Z,4.29
2022-12-17T14:17:59.479Z,4.23
2022-12-17T14:20:30.775Z,4.15
2022-12-17T14:23:05.313Z,4.12
2022-12-17T14:25:36.558Z,4.05
2022-12-17T14:28:06.943Z,4.03
2022-12-17T14:31:02.662Z,3.97
2022-12-17T14:33:30.118Z,3.89
2022-12-17T14:35:59.285Z,3.90
2022-12-17T14:38:48.503Z,3.90
2022-12-17T14:41:34.488Z,3.84
2022-12-17T14:44:03.821Z,3.78
2022-12-17T14:46:33.863Z,3.75
2022-12-17T14:49:04.259Z,3.77
2022-12-17T14:51:35.022Z,3.73
2022-12-17T14:54:26.018Z,3.73
2022-12-17T14:56:58.140Z,3.69
2022-12-17T14:59:33.902Z,3.67
2022-12-17T15:02:04.666Z,3.62
2022-12-17T15:04:34.614Z,3.60
2022-12-17T15:07:02.905Z,3.56
2022-12-17T15:09:39.171Z,3.54
2022-12-17T15:12:09.384Z,3.52
2022-12-17T15:14:37.837Z,3.46
2022-12-17T15:17:07.440Z,3.41
2022-12-17T15:19:36.242Z,3.35
2022-12-17T15:22:06.553Z,3.25
2022-12-17T15:24:37.096Z,3.18
2022-12-17T15:27:06.809Z,3.05
2022-12-17T15:29:38.031Z,3.05
2022-12-17T15:32:06.402Z,3.05
2022-12-17T15:34:36.762Z,2.92
2022-12-17T15:37:07.468Z,2.86
2022-12-17T15:39:38.173Z,2.79
2022-12-17T15:42:24.290Z,2.69
2022-12-17T15:44:54.223Z,2.65
2022-12-17T15:47:23.366Z,2.62
2022-12-17T15:49:55.414Z,2.61
2022-12-17T15:52:26.408Z,2.51
2022-12-17T15:54:56.256Z,2.50
2022-12-17T15:57:26.299Z,2.46
2022-12-17T15:59:59.712Z,2.41
2022-12-17T16:02:30.650Z,2.41
2022-12-17T16:05:02.034Z,2.36
2022-12-17T16:07:30.232Z,2.32
2022-12-17T16:10:04.538Z,2.24
2022-12-17T16:12:33.854Z,2.19
2022-12-17T16:15:11.083Z,2.10
2022-12-17T16:17:44.142Z,2.04
2022-12-17T16:20:12.716Z,1.99
2022-12-17T16:22:41.173Z,1.98
2022-12-17T16:25:10.607Z,1.93
2022-12-17T16:27:39.913Z,1.90
2022-12-17T16:30:12.772Z,1.85
2022-12-17T16:32:40.970Z,1.85
2022-12-17T16:35:12.601Z,1.83
2022-12-17T16:37:40.903Z,1.80
2022-12-17T16:40:09.880Z,1.72
2022-12-17T16:42:38.484Z,1.70
2022-12-17T16:45:07.436Z,1.65
2022-12-17T16:47:38.906Z,1.59
2022-12-17T16:50:07.705Z,1.54
2022-12-17T16:52:36.464Z,1.49
2022-12-17T16:55:07.375Z,1.43
2022-12-17T16:57:36.445Z,1.39
2022-12-17T17:00:05.261Z,1.33
2022-12-17T17:02:33.914Z,1.27
2022-12-17T17:05:04.051Z,1.26
2022-12-17T17:07:32.465Z,1.26
2022-12-17T17:10:01.239Z,1.25
2022-12-17T17:12:30.315Z,1.24
2022-12-17T17:15:00.412Z,1.27
2022-12-17T17:17:54.452Z,1.28
2022-12-17T17:20:22.520Z,1.31
2022-12-17T17:22:50.795Z,1.34
2022-12-17T17:25:19.492Z,1.33
2022-12-17T17:27:48.280Z,1.36
2022-12-17T17:30:16.564Z,1.34
2022-12-17T17:32:45.185Z,1.38
2022-12-17T17:35:17.073Z,1.44
2022-12-17T17:37:49.062Z,1.51
2022-12-17T17:40:19.299Z,1.58
2022-12-17T17:42:52.958Z,1.64
2022-12-17T17:45:22.996Z,1.71
2022-12-17T17:47:51.695Z,1.75
2022-12-17T17:50:21.214Z,1.85
2022-12-17T17:52:53.584Z,1.92
2022-12-17T17:55:25.307Z,1.98
2022-12-17T17:57:58.141Z,2.04
2022-12-17T18:00:27.631Z,2.10
2022-12-17T18:02:57.925Z,2.13
2022-12-17T18:05:26.385Z,2.14
2022-12-17T18:07:57.953Z,2.20
2022-12-17T18:10:30.079Z,2.25
2022-12-17T18:13:16.978Z,2.25
2022-12-17T18:15:46.142Z,2.27
2022-12-17T18:18:16.086Z,2.28
2022-12-17T18:20:44.633Z,2.31
2022-12-17T18:23:14.169Z,2.31
2022-12-17T18:25:42.245Z,2.30
2022-12-17T18:28:10.403Z,2.31
2022-12-17T18:30:39.404Z,2.34
2022-12-17T18:33:07.450Z,2.38
2022-12-17T18:35:35.788Z,2.39
2022-12-17T18:38:04.144Z,2.40
2022-12-17T18:40:36.193Z,2.43
2022-12-17T18:43:21.575Z,2.44
2022-12-17T18:45:49.900Z,2.37
2022-12-17T18:48:24.316Z,2.36
2022-12-17T18:50:59.773Z,2.28
2022-12-17T18:53:34.387Z,2.22
2022-12-17T18:56:22.920Z,2.16
2022-12-17T18:59:06.971Z,2.05
2022-12-17T19:01:39.505Z,1.97
2022-12-17T19:04:11.249Z,1.85
2022-12-17T19:06:47.122Z,1.75
2022-12-17T19:09:20.630Z,1.63
2022-12-17T19:11:52.089Z,1.50
2022-12-17T19:14:23.719Z,1.43
2022-12-17T19:16:53.860Z,1.34
2022-12-17T19:19:25.404Z,1.27
2022-12-17T19:21:55.207Z,1.22
2022-12-17T19:24:24.318Z,1.19
2022-12-17T19:26:53.920Z,1.15
2022-12-17T19:29:24.406Z,1.12
2022-12-17T19:31:52.850Z,1.05
2022-12-17T19:34:24.087Z,1.00
2022-12-17T19:36:52.129Z,0.95
2022-12-17T19:39:20.646Z,0.93
2022-12-17T19:41:51.148Z,0.91
2022-12-17T19:44:25.571Z,0.86
2022-12-17T19:46:58.778Z,0.85
2022-12-17T19:49:27.264Z,0.85
2022-12-17T19:51:55.399Z,0.82
2022-12-17T19:54:25.873Z,0.80
2022-12-17T19:56:54.614Z,0.83
2022-12-17T19:59:24.176Z,0.86
2022-12-17T20:01:54.948Z,0.88
2022-12-17T20:04:24.092Z,0.90
2022-12-17T20:06:53.146Z,0.91
2022-12-17T20:09:21.599Z,0.86
2022-12-17T20:11:50.925Z,0.84
2022-12-17T20:14:22.699Z,0.86
2022-12-17T20:16:53.464Z,0.88
2022-12-17T20:19:23.293Z,0.86
2022-12-17T20:21:51.645Z,0.83
2022-12-17T20:24:30.510Z,0.82
2022-12-17T20:27:00.656Z,0.82
2022-12-17T20:29:32.068Z,0.79
2022-12-17T20:32:05.544Z,0.75
2022-12-17T20:34:36.069Z,0.71
2022-12-17T20:37:04.225Z,0.65
2022-12-17T20:39:32.775Z,0.62
2022-12-17T20:42:01.655Z,0.55
2022-12-17T20:44:31.086Z,0.50
2022-12-17T20:46:59.237Z,0.50
2022-12-17T20:49:31.622Z,0.50
2022-12-17T20:52:00.115Z,0.55
2022-12-17T20:54:30.601Z,0.55
2022-12-17T20:57:01.016Z,0.53
2022-12-17T20:59:31.094Z,0.48
2022-12-17T21:01:59.434Z,0.44
2022-12-17T21:04:33.020Z,0.43
2022-12-17T21:07:01.105Z,0.41
2022-12-17T21:09:29.466Z,0.40
2022-12-17T21:11:57.680Z,0.39
2022-12-17T21:14:29.177Z,0.36
2022-12-17T21:17:01.685Z,0.31
2022-12-17T21:19:36.303Z,0.27
2022-12-17T21:22:06.921Z,0.19
2022-12-17T21:24:38.361Z,0.16
2022-12-17T21:27:14.551Z,0.12
2022-12-17T21:29:43.687Z,0.07
2022-12-17T21:32:12.204Z,0.03
2022-12-17T21:34:43.888Z,-0.01
2022-12-17T21:37:12.622Z,-0.05
2022-12-17T21:39:41.879Z,-0.09
2022-12-17T21:42:29.242Z,-0.17
2022-12-17T21:44:57.448Z,-0.18
2022-12-17T21:47:28.056Z,-0.14
2022-12-17T21:49:57.825Z,-0.04
2022-12-17T21:52:29.393Z,0.17
2022-12-17T21:54:58.607Z,0.30
2022-12-17T21:57:28.641Z,0.40
2022-12-17T22:00:00.244Z,0.48
2022-12-17T22:02:28.683Z,0.61
2022-12-17T22:05:03.143Z,0.67
2022-12-17T22:07:34.443Z,0.73
2022-12-17T22:10:30.436Z,0.80
2022-12-17T22:13:11.743Z,0.88
2022-12-17T22:15:48.094Z,0.93
2022-12-17T22:18:17.001Z,0.93
2022-12-17T22:20:46.704Z,0.94
2022-12-17T22:23:15.471Z,0.92
2022-12-17T22:25:43.917Z,0.93
2022-12-17T22:28:11.930Z,0.93
2022-12-17T22:30:57.938Z,0.93
2022-12-17T22:34:04.968Z,0.94
2022-12-17T22:39:07.780Z,0.97
2022-12-17T22:42:39.492Z,1.02
2022-12-17T22:44:46.298Z,1.05
2022-12-17T22:45:08.619Z,1.02
2022-12-17T22:47:37.896Z,0.98
2022-12-17T22:50:06.467Z,0.99
2022-12-17T22:52:36.806Z,0.97
2022-12-17T22:55:06.116Z,0.98
2022-12-17T22:57:37.492Z,1.07
2022-12-17T23:00:12.550Z,1.11
2022-12-17T23:02:41.058Z,1.13
2022-12-17T23:05:09.699Z,1.13
2022-12-17T23:07:39.431Z,1.19
2022-12-17T23:10:08.124Z,1.22
2022-12-17T23:12:55.045Z,1.24
2022-12-17T23:15:25.521Z,1.30
2022-12-17T23:17:54.434Z,1.33
2022-12-17T23:20:22.516Z,1.37
2022-12-17T23:22:51.999Z,1.39
2022-12-17T23:25:20.359Z,1.43
2022-12-17T23:27:48.909Z,1.45
2022-12-17T23:30:17.596Z,1.44
2022-12-17T23:32:45.996Z,1.37
2022-12-17T23:35:14.856Z,1.41
2022-12-17T23:37:43.504Z,1.46
2022-12-17T23:40:14.062Z,1.44
2022-12-17T23:42:42.170Z,1.45
2022-12-17T23:45:12.051Z,1.45
2022-12-17T23:47:41.450Z,1.48
2022-12-17T23:50:10.336Z,1.47
2022-12-17T23:52:38.497Z,1.45
2022-12-17T23:55:06.684Z,1.43
2022-12-17T23:57:36.668Z,1.40
